sensor_id;sensor_type;location;lat;lon;timestamp;pressure;altitude;pressure_sealevel;temperature;humidity
62697;BME280;48761;42.680;23.312;2023-04-08T00:01:06;94897.81;;;6.33;60.38
62697;BME280;48761;42.680;23.312;2023-04-08T00:03:31;94840.78;;;5.95;60.78
62697;BME280;48761;42.680;23.312;2023-04-08T00:06:00;94904.81;;;6.34;60.23
62697;BME280;48761;42.680;23.312;2023-04-08T00:08:26;94872.66;;;6.26;59.99
62697;BME280;48761;42.680;23.312;2023-04-08T00:10:52;94900.41;;;6.51;60.23
62697;BME280;48761;42.680;23.312;2023-04-08T00:13:18;94904.81;;;6.34;60.25
62697;BME280;48761;42.680;23.312;2023-04-08T00:15:47;94847.41;;;5.86;60.40
62697;BME280;48761;42.680;23.312;2023-04-08T00:18:52;94906.84;;;6.11;61.06
62697;BME280;48761;42.680;23.312;2023-04-08T00:22:19;94906.97;;;6.44;60.52
62697;BME280;48761;42.680;23.312;2023-04-08T00:25:26;94898.13;;;6.27;61.12
62697;BME280;48761;42.680;23.312;2023-04-08T00:28:37;94903.28;;;6.12;61.58
62697;BME280;48761;42.680;23.312;2023-04-08T00:35:00;94837.84;;;6.19;60.48
62697;BME280;48761;42.680;23.312;2023-04-08T00:37:29;94886.44;;;6.49;60.39
62697;BME280;48761;42.680;23.312;2023-04-08T00:39:58;94890.91;;;6.65;60.06
62697;BME280;48761;42.680;23.312;2023-04-08T00:42:27;94846.53;;;6.37;59.99
62697;BME280;48761;42.680;23.312;2023-04-08T00:44:54;94890.13;;;6.63;59.78
62697;BME280;48761;42.680;23.312;2023-04-08T00:47:20;94853.72;;;6.18;60.46
62697;BME280;48761;42.680;23.312;2023-04-08T00:49:48;94905.50;;;6.38;60.62
62697;BME280;48761;42.680;23.312;2023-04-08T00:52:17;94888.44;;;5.92;61.55
62697;BME280;48761;42.680;23.312;2023-04-08T00:54:51;94876.56;;;5.47;62.67
62697;BME280;48761;42.680;23.312;2023-04-08T00:57:17;94886.78;;;5.36;62.31
62697;BME280;48761;42.680;23.312;2023-04-08T00:59:44;94838.16;;;4.87;62.53
62697;BME280;48761;42.680;23.312;2023-04-08T01:05:10;94905.78;;;5.06;63.91
62697;BME280;48761;42.680;23.312;2023-04-08T01:08:01;94862.78;;;4.86;64.03
62697;BME280;48761;42.680;23.312;2023-04-08T01:10:36;94887.91;;;4.93;64.86
62697;BME280;48761;42.680;23.312;2023-04-08T01:13:11;94860.31;;;4.82;64.61
62697;BME280;48761;42.680;23.312;2023-04-08T01:15:49;94895.38;;;5.02;64.95
62697;BME280;48761;42.680;23.312;2023-04-08T01:18:18;94881.00;;;5.10;64.54
62697;BME280;48761;42.680;23.312;2023-04-08T01:20:49;94914.66;;;5.22;65.01
62697;BME280;48761;42.680;23.312;2023-04-08T01:26:24;94846.84;;;4.69;65.42
62697;BME280;48761;42.680;23.312;2023-04-08T01:28:52;94873.19;;;4.89;65.37
62697;BME280;48761;42.680;23.312;2023-04-08T01:31:27;94888.44;;;5.19;64.97
62697;BME280;48761;42.680;23.312;2023-04-08T01:33:59;94886.41;;;5.07;65.60
62697;BME280;48761;42.680;23.312;2023-04-08T01:36:27;94864.69;;;5.01;64.35
62697;BME280;48761;42.680;23.312;2023-04-08T01:42:11;94914.41;;;5.64;63.86
62697;BME280;48761;42.680;23.312;2023-04-08T01:44:51;94855.59;;;5.26;63.26
62697;BME280;48761;42.680;23.312;2023-04-08T01:55:01;94848.69;;;5.42;62.23
62697;BME280;48761;42.680;23.312;2023-04-08T01:57:35;94893.94;;;5.69;62.50
62697;BME280;48761;42.680;23.312;2023-04-08T02:00:05;94919.09;;;5.94;62.09
62697;BME280;48761;42.680;23.312;2023-04-08T02:02:34;94865.09;;;5.48;62.73
62697;BME280;48761;42.680;23.312;2023-04-08T02:05:01;94881.69;;;5.51;62.54
62697;BME280;48761;42.680;23.312;2023-04-08T02:07:26;94908.97;;;5.49;62.74
62697;BME280;48761;42.680;23.312;2023-04-08T02:09:52;94866.72;;;5.14;62.66
62697;BME280;48761;42.680;23.312;2023-04-08T02:12:18;94945.75;;;5.53;62.37
62697;BME280;48761;42.680;23.312;2023-04-08T02:14:44;94896.34;;;5.19;62.57
62697;BME280;48761;42.680;23.312;2023-04-08T02:17:13;94897.56;;;5.12;62.99
62697;BME280;48761;42.680;23.312;2023-04-08T02:19:56;94948.19;;;5.38;62.90
62697;BME280;48761;42.680;23.312;2023-04-08T02:22:29;94951.13;;;5.32;63.34
62697;BME280;48761;42.680;23.312;2023-04-08T02:25:03;94866.63;;;4.78;62.59
62697;BME280;48761;42.680;23.312;2023-04-08T02:27:33;94950.47;;;5.26;63.18
62697;BME280;48761;42.680;23.312;2023-04-08T02:30:03;94925.84;;;5.08;63.35
62697;BME280;48761;42.680;23.312;2023-04-08T02:32:32;94943.78;;;5.19;63.14
62697;BME280;48761;42.680;23.312;2023-04-08T02:35:03;94948.94;;;5.22;63.25
62697;BME280;48761;42.680;23.312;2023-04-08T02:37:30;94936.53;;;5.24;63.48
62697;BME280;48761;42.680;23.312;2023-04-08T02:39:56;94942.34;;;5.31;63.25
62697;BME280;48761;42.680;23.312;2023-04-08T02:42:22;94940.44;;;5.35;63.68
62697;BME280;48761;42.680;23.312;2023-04-08T02:44:48;94942.75;;;5.41;63.52
62697;BME280;48761;42.680;23.312;2023-04-08T02:47:14;94938.75;;;5.52;63.67
62697;BME280;48761;42.680;23.312;2023-04-08T02:49:40;94948.91;;;5.42;63.83
62697;BME280;48761;42.680;23.312;2023-04-08T02:52:06;94896.06;;;5.25;63.97
62697;BME280;48761;42.680;23.312;2023-04-08T02:54:33;94938.06;;;5.48;65.73
62697;BME280;48761;42.680;23.312;2023-04-08T02:56:59;94906.72;;;5.04;67.12
62697;BME280;48761;42.680;23.312;2023-04-08T02:59:25;94920.28;;;5.14;67.16
62697;BME280;48761;42.680;23.312;2023-04-08T03:01:51;94939.66;;;5.33;66.48
62697;BME280;48761;42.680;23.312;2023-04-08T03:04:17;94945.44;;;5.59;65.93
62697;BME280;48761;42.680;23.312;2023-04-08T03:06:42;94946.19;;;5.43;66.10
62697;BME280;48761;42.680;23.312;2023-04-08T03:09:11;94922.97;;;5.32;66.15
62697;BME280;48761;42.680;23.312;2023-04-08T03:11:37;94936.28;;;5.48;65.57
62697;BME280;48761;42.680;23.312;2023-04-08T03:14:03;94917.34;;;5.40;65.38
62697;BME280;48761;42.680;23.312;2023-04-08T03:16:29;94916.84;;;5.32;65.33
62697;BME280;48761;42.680;23.312;2023-04-08T03:18:56;94903.00;;;5.09;65.87
62697;BME280;48761;42.680;23.312;2023-04-08T03:21:22;94938.25;;;5.25;65.94
62697;BME280;48761;42.680;23.312;2023-04-08T03:23:47;94941.94;;;5.21;66.30
62697;BME280;48761;42.680;23.312;2023-04-08T03:26:13;94900.16;;;4.94;65.86
62697;BME280;48761;42.680;23.312;2023-04-08T03:28:39;94946.06;;;5.27;66.00
62697;BME280;48761;42.680;23.312;2023-04-08T03:31:05;94903.44;;;4.99;66.07
62697;BME280;48761;42.680;23.312;2023-04-08T03:33:31;94927.97;;;5.19;65.83
62697;BME280;48761;42.680;23.312;2023-04-08T03:35:57;94947.03;;;5.44;65.86
62697;BME280;48761;42.680;23.312;2023-04-08T03:38:23;94947.91;;;5.44;65.55
62697;BME280;48761;42.680;23.312;2023-04-08T03:40:49;94946.50;;;5.18;66.19
62697;BME280;48761;42.680;23.312;2023-04-08T03:43:15;94942.69;;;5.06;66.77
62697;BME280;48761;42.680;23.312;2023-04-08T03:45:41;94914.63;;;5.04;66.32
62697;BME280;48761;42.680;23.312;2023-04-08T03:48:07;94922.44;;;5.06;66.21
62697;BME280;48761;42.680;23.312;2023-04-08T03:50:35;94895.53;;;4.80;66.43
62697;BME280;48761;42.680;23.312;2023-04-08T03:53:02;94929.84;;;5.17;66.75
62697;BME280;48761;42.680;23.312;2023-04-08T03:55:28;94939.25;;;5.03;67.02
62697;BME280;48761;42.680;23.312;2023-04-08T03:57:54;94903.50;;;4.78;67.17
62697;BME280;48761;42.680;23.312;2023-04-08T04:00:20;94928.91;;;4.99;67.84
62697;BME280;48761;42.680;23.312;2023-04-08T04:02:46;94946.66;;;4.95;68.13
62697;BME280;48761;42.680;23.312;2023-04-08T04:05:12;94928.69;;;5.03;67.79
62697;BME280;48761;42.680;23.312;2023-04-08T04:07:38;94939.94;;;5.26;67.22
62697;BME280;48761;42.680;23.312;2023-04-08T04:10:04;94926.44;;;5.15;67.58
62697;BME280;48761;42.680;23.312;2023-04-08T04:12:30;94943.09;;;5.15;67.66
62697;BME280;48761;42.680;23.312;2023-04-08T04:14:56;94916.88;;;4.93;68.09
62697;BME280;48761;42.680;23.312;2023-04-08T04:17:22;94907.94;;;4.97;68.15
62697;BME280;48761;42.680;23.312;2023-04-08T04:19:48;94921.31;;;4.92;68.12
62697;BME280;48761;42.680;23.312;2023-04-08T04:22:14;94952.41;;;5.03;68.43
62697;BME280;48761;42.680;23.312;2023-04-08T04:24:40;94914.19;;;4.75;68.13
62697;BME280;48761;42.680;23.312;2023-04-08T04:27:06;94920.72;;;4.86;68.27
62697;BME280;48761;42.680;23.312;2023-04-08T04:29:32;94954.50;;;4.97;68.46
62697;BME280;48761;42.680;23.312;2023-04-08T04:31:58;94931.78;;;4.75;69.38
62697;BME280;48761;42.680;23.312;2023-04-08T04:34:24;94939.97;;;4.88;68.61
62697;BME280;48761;42.680;23.312;2023-04-08T04:36:50;94970.16;;;5.00;68.59
62697;BME280;48761;42.680;23.312;2023-04-08T04:39:16;94935.09;;;4.78;68.59
62697;BME280;48761;42.680;23.312;2023-04-08T04:41:42;94965.25;;;4.92;69.29
62697;BME280;48761;42.680;23.312;2023-04-08T04:44:08;94957.47;;;4.89;68.70
62697;BME280;48761;42.680;23.312;2023-04-08T04:46:34;94919.00;;;4.65;68.94
62697;BME280;48761;42.680;23.312;2023-04-08T04:49:00;94910.50;;;4.60;69.28
62697;BME280;48761;42.680;23.312;2023-04-08T04:51:26;94946.66;;;4.95;68.66
62697;BME280;48761;42.680;23.312;2023-04-08T04:53:52;94952.63;;;4.99;68.41
62697;BME280;48761;42.680;23.312;2023-04-08T04:56:18;94961.03;;;5.07;68.55
62697;BME280;48761;42.680;23.312;2023-04-08T04:58:44;94960.81;;;5.12;67.51
62697;BME280;48761;42.680;23.312;2023-04-08T05:01:10;94956.13;;;5.19;67.12
62697;BME280;48761;42.680;23.312;2023-04-08T05:03:36;94931.56;;;5.18;66.38
62697;BME280;48761;42.680;23.312;2023-04-08T05:06:02;94963.06;;;5.58;65.54
62697;BME280;48761;42.680;23.312;2023-04-08T05:08:28;94936.47;;;5.63;65.05
62697;BME280;48761;42.680;23.312;2023-04-08T05:10:54;94936.88;;;5.54;64.83
62697;BME280;48761;42.680;23.312;2023-04-08T05:13:20;94973.53;;;5.60;64.32
62697;BME280;48761;42.680;23.312;2023-04-08T05:15:47;94963.44;;;5.31;65.00
62697;BME280;48761;42.680;23.312;2023-04-08T05:18:13;94966.03;;;5.33;65.53
62697;BME280;48761;42.680;23.312;2023-04-08T05:20:39;94974.41;;;5.41;65.45
62697;BME280;48761;42.680;23.312;2023-04-08T05:23:06;94972.56;;;5.43;65.11
62697;BME280;48761;42.680;23.312;2023-04-08T05:25:32;94972.44;;;5.27;65.18
62697;BME280;48761;42.680;23.312;2023-04-08T05:27:58;94921.59;;;5.06;64.69
62697;BME280;48761;42.680;23.312;2023-04-08T05:30:24;94967.72;;;5.34;64.88
62697;BME280;48761;42.680;23.312;2023-04-08T05:32:50;94945.06;;;5.30;64.58
62697;BME280;48761;42.680;23.312;2023-04-08T05:35:16;94968.84;;;5.47;64.30
62697;BME280;48761;42.680;23.312;2023-04-08T05:37:42;94966.72;;;5.56;64.25
62697;BME280;48761;42.680;23.312;2023-04-08T05:40:08;94963.97;;;5.57;63.57
62697;BME280;48761;42.680;23.312;2023-04-08T05:42:34;94970.47;;;5.87;63.02
62697;BME280;48761;42.680;23.312;2023-04-08T05:45:00;94968.06;;;5.82;63.32
62697;BME280;48761;42.680;23.312;2023-04-08T05:47:26;94968.97;;;5.64;63.72
62697;BME280;48761;42.680;23.312;2023-04-08T05:49:52;94972.94;;;5.72;63.60
62697;BME280;48761;42.680;23.312;2023-04-08T05:52:18;94963.16;;;5.75;63.63
62697;BME280;48761;42.680;23.312;2023-04-08T05:54:44;94969.91;;;5.80;63.64
62697;BME280;48761;42.680;23.312;2023-04-08T05:57:10;94936.13;;;5.69;63.57
62697;BME280;48761;42.680;23.312;2023-04-08T05:59:36;94966.44;;;5.98;63.32
62697;BME280;48761;42.680;23.312;2023-04-08T06:02:03;94960.50;;;5.75;63.74
62697;BME280;48761;42.680;23.312;2023-04-08T06:04:29;94958.91;;;5.90;63.68
62697;BME280;48761;42.680;23.312;2023-04-08T06:06:55;94964.41;;;6.03;63.29
62697;BME280;48761;42.680;23.312;2023-04-08T06:09:22;94950.75;;;5.94;63.06
62697;BME280;48761;42.680;23.312;2023-04-08T06:11:48;94963.22;;;6.10;62.49
62697;BME280;48761;42.680;23.312;2023-04-08T06:14:13;94931.97;;;5.83;62.49
62697;BME280;48761;42.680;23.312;2023-04-08T06:16:40;94966.97;;;6.04;62.46
62697;BME280;48761;42.680;23.312;2023-04-08T06:19:08;94900.59;;;5.77;62.59
62697;BME280;48761;42.680;23.312;2023-04-08T06:21:34;94941.63;;;6.20;62.63
62697;BME280;48761;42.680;23.312;2023-04-08T06:24:01;94958.94;;;6.25;62.05
62697;BME280;48761;42.680;23.312;2023-04-08T06:26:27;94955.28;;;6.10;62.17
62697;BME280;48761;42.680;23.312;2023-04-08T06:28:53;94964.75;;;6.32;62.43
62697;BME280;48761;42.680;23.312;2023-04-08T06:31:19;94908.91;;;6.04;61.86
62697;BME280;48761;42.680;23.312;2023-04-08T06:33:45;94953.72;;;6.42;62.31
62697;BME280;48761;42.680;23.312;2023-04-08T06:36:11;94957.28;;;6.41;62.39
62697;BME280;48761;42.680;23.312;2023-04-08T06:38:37;94929.38;;;6.19;62.70
62697;BME280;48761;42.680;23.312;2023-04-08T06:41:04;94912.97;;;5.94;63.08
62697;BME280;48761;42.680;23.312;2023-04-08T06:43:31;94942.16;;;5.91;63.90
62697;BME280;48761;42.680;23.312;2023-04-08T06:45:57;94968.94;;;6.01;64.53
62697;BME280;48761;42.680;23.312;2023-04-08T06:48:24;94976.78;;;6.20;64.29
62697;BME280;48761;42.680;23.312;2023-04-08T06:50:50;94971.91;;;6.30;64.02
62697;BME280;48761;42.680;23.312;2023-04-08T06:53:16;94970.19;;;6.29;64.17
62697;BME280;48761;42.680;23.312;2023-04-08T06:55:42;94938.16;;;6.19;64.14
62697;BME280;48761;42.680;23.312;2023-04-08T06:58:07;94937.66;;;6.11;64.07
62697;BME280;48761;42.680;23.312;2023-04-08T07:00:33;94964.59;;;6.35;64.08
62697;BME280;48761;42.680;23.312;2023-04-08T07:02:59;94970.22;;;6.11;64.86
62697;BME280;48761;42.680;23.312;2023-04-08T07:05:25;94952.47;;;5.96;64.93
62697;BME280;48761;42.680;23.312;2023-04-08T07:07:51;94973.69;;;6.30;64.83
62697;BME280;48761;42.680;23.312;2023-04-08T07:10:18;94967.47;;;6.31;65.13
62697;BME280;48761;42.680;23.312;2023-04-08T07:12:43;94964.22;;;6.25;65.71
62697;BME280;48761;42.680;23.312;2023-04-08T07:15:09;94955.13;;;6.13;65.96
62697;BME280;48761;42.680;23.312;2023-04-08T07:17:35;94976.47;;;6.44;65.69
62697;BME280;48761;42.680;23.312;2023-04-08T07:20:01;94969.78;;;6.55;64.97
62697;BME280;48761;42.680;23.312;2023-04-08T07:22:27;94946.69;;;6.24;65.24
62697;BME280;48761;42.680;23.312;2023-04-08T07:24:53;94965.69;;;6.49;65.11
62697;BME280;48761;42.680;23.312;2023-04-08T07:27:19;94987.25;;;6.57;65.06
62697;BME280;48761;42.680;23.312;2023-04-08T07:29:45;94983.75;;;6.57;65.21
62697;BME280;48761;42.680;23.312;2023-04-08T07:32:11;94982.53;;;6.80;64.76
62697;BME280;48761;42.680;23.312;2023-04-08T07:34:37;94958.69;;;6.48;65.05
62697;BME280;48761;42.680;23.312;2023-04-08T07:37:03;94973.31;;;6.71;65.21
62697;BME280;48761;42.680;23.312;2023-04-08T07:39:29;94962.25;;;6.81;64.99
62697;BME280;48761;42.680;23.312;2023-04-08T07:41:55;94981.00;;;7.10;64.50
62697;BME280;48761;42.680;23.312;2023-04-08T07:44:21;94959.25;;;6.71;64.74
62697;BME280;48761;42.680;23.312;2023-04-08T07:46:47;94983.69;;;7.09;64.45
62697;BME280;48761;42.680;23.312;2023-04-08T07:49:13;94995.41;;;7.21;64.35
62697;BME280;48761;42.680;23.312;2023-04-08T07:51:38;95003.25;;;7.22;64.36
62697;BME280;48761;42.680;23.312;2023-04-08T07:54:04;95009.69;;;7.50;63.77
62697;BME280;48761;42.680;23.312;2023-04-08T07:56:30;94964.19;;;7.27;63.75
62697;BME280;48761;42.680;23.312;2023-04-08T07:58:56;94964.19;;;7.27;63.33
62697;BME280;48761;42.680;23.312;2023-04-08T08:01:22;95000.78;;;7.51;62.77
62697;BME280;48761;42.680;23.312;2023-04-08T08:03:49;95017.69;;;7.65;62.74
62697;BME280;48761;42.680;23.312;2023-04-08T08:06:15;95012.94;;;7.56;62.89
62697;BME280;48761;42.680;23.312;2023-04-08T08:08:41;95021.59;;;7.90;62.36
62697;BME280;48761;42.680;23.312;2023-04-08T08:11:08;95024.75;;;8.13;62.63
62697;BME280;48761;42.680;23.312;2023-04-08T08:13:34;95018.75;;;8.10;62.54
62697;BME280;48761;42.680;23.312;2023-04-08T08:16:00;95012.78;;;8.06;62.54
62697;BME280;48761;42.680;23.312;2023-04-08T08:18:25;95017.59;;;8.30;62.75
62697;BME280;48761;42.680;23.312;2023-04-08T08:20:51;95011.75;;;8.39;62.25
62697;BME280;48761;42.680;23.312;2023-04-08T08:23:17;95008.03;;;8.27;62.31
62697;BME280;48761;42.680;23.312;2023-04-08T08:25:43;95000.16;;;8.11;62.41
62697;BME280;48761;42.680;23.312;2023-04-08T08:28:09;95012.69;;;8.07;61.98
62697;BME280;48761;42.680;23.312;2023-04-08T08:30:35;94981.19;;;8.03;61.92
62697;BME280;48761;42.680;23.312;2023-04-08T08:33:01;94998.25;;;8.13;62.06
62697;BME280;48761;42.680;23.312;2023-04-08T08:35:27;94989.91;;;8.05;62.14
62697;BME280;48761;42.680;23.312;2023-04-08T08:37:52;95018.41;;;8.47;61.76
62697;BME280;48761;42.680;23.312;2023-04-08T08:40:18;95008.66;;;8.47;61.77
62697;BME280;48761;42.680;23.312;2023-04-08T08:42:49;94994.03;;;8.25;61.69
62697;BME280;48761;42.680;23.312;2023-04-08T08:45:18;94997.16;;;8.32;61.91
62697;BME280;48761;42.680;23.312;2023-04-08T08:47:44;95012.66;;;8.24;62.30
62697;BME280;48761;42.680;23.312;2023-04-08T08:50:10;94988.59;;;8.12;62.17
62697;BME280;48761;42.680;23.312;2023-04-08T08:52:36;94995.63;;;7.97;62.76
62697;BME280;48761;42.680;23.312;2023-04-08T08:55:02;94998.97;;;8.01;62.74
62697;BME280;48761;42.680;23.312;2023-04-08T08:57:28;94988.38;;;8.01;62.89
62697;BME280;48761;42.680;23.312;2023-04-08T08:59:54;95012.53;;;8.11;62.78
62697;BME280;48761;42.680;23.312;2023-04-08T09:05:01;95018.91;;;7.76;62.86
62697;BME280;48761;42.680;23.312;2023-04-08T09:07:29;95021.13;;;7.83;63.58
62697;BME280;48761;42.680;23.312;2023-04-08T09:09:58;95001.28;;;7.74;63.18
62697;BME280;48761;42.680;23.312;2023-04-08T09:12:24;95027.72;;;8.07;63.12
62697;BME280;48761;42.680;23.312;2023-04-08T09:15:10;95026.84;;;8.23;62.73
62697;BME280;48761;42.680;23.312;2023-04-08T09:17:38;94966.78;;;7.92;62.08
62697;BME280;48761;42.680;23.312;2023-04-08T09:20:11;94979.59;;;8.62;61.55
62697;BME280;48761;42.680;23.312;2023-04-08T09:23:01;95010.94;;;9.14;60.82
62697;BME280;48761;42.680;23.312;2023-04-08T09:25:31;95020.22;;;8.92;60.48
62697;BME280;48761;42.680;23.312;2023-04-08T09:27:59;94946.34;;;8.85;59.48
62697;BME280;48761;42.680;23.312;2023-04-08T09:30:46;95008.44;;;9.25;59.38
62697;BME280;48761;42.680;23.312;2023-04-08T09:33:18;94961.03;;;9.06;58.86
62697;BME280;48761;42.680;23.312;2023-04-08T09:35:45;94987.03;;;9.43;57.40
62697;BME280;48761;42.680;23.312;2023-04-08T09:38:14;94951.59;;;9.44;56.57
62697;BME280;48761;42.680;23.312;2023-04-08T09:40:41;94982.31;;;9.76;56.54
62697;BME280;48761;42.680;23.312;2023-04-08T09:43:22;94967.34;;;9.75;55.43
62697;BME280;48761;42.680;23.312;2023-04-08T09:46:25;94961.03;;;9.63;56.06
62697;BME280;48761;42.680;23.312;2023-04-08T09:51:39;94983.84;;;10.21;54.79
62697;BME280;48761;42.680;23.312;2023-04-08T09:54:30;94965.03;;;10.24;53.85
62697;BME280;48761;42.680;23.312;2023-04-08T09:57:12;94982.47;;;10.56;54.85
62697;BME280;48761;42.680;23.312;2023-04-08T09:59:44;94989.72;;;9.98;55.56
62697;BME280;48761;42.680;23.312;2023-04-08T10:02:13;94986.19;;;9.85;56.64
62697;BME280;48761;42.680;23.312;2023-04-08T10:04:44;94976.47;;;10.52;55.40
62697;BME280;48761;42.680;23.312;2023-04-08T10:07:15;94980.22;;;10.22;55.68
62697;BME280;48761;42.680;23.312;2023-04-08T10:09:41;94978.13;;;10.27;56.17
62697;BME280;48761;42.680;23.312;2023-04-08T10:12:08;94981.75;;;10.26;55.32
62697;BME280;48761;42.680;23.312;2023-04-08T10:14:34;94976.16;;;10.16;55.14
62697;BME280;48761;42.680;23.312;2023-04-08T10:17:26;94977.72;;;9.93;55.91
62697;BME280;48761;42.680;23.312;2023-04-08T10:19:52;94969.88;;;9.77;56.68
62697;BME280;48761;42.680;23.312;2023-04-08T10:27:40;94960.19;;;9.62;57.35
62697;BME280;48761;42.680;23.312;2023-04-08T10:32:51;94970.56;;;10.21;55.31
62697;BME280;48761;42.680;23.312;2023-04-08T10:35:16;94947.88;;;10.02;55.06
62697;BME280;48761;42.680;23.312;2023-04-08T10:37:43;94964.81;;;9.86;56.08
62697;BME280;48761;42.680;23.312;2023-04-08T10:40:19;94954.88;;;9.90;56.10
62697;BME280;48761;42.680;23.312;2023-04-08T10:42:45;94960.66;;;10.10;55.97
62697;BME280;48761;42.680;23.312;2023-04-08T10:45:15;94950.28;;;9.92;55.97
62697;BME280;48761;42.680;23.312;2023-04-08T10:47:41;94927.56;;;9.60;56.21
62697;BME280;48761;42.680;23.312;2023-04-08T10:50:19;94933.47;;;9.79;56.34
62697;BME280;48761;42.680;23.312;2023-04-08T10:52:51;94928.16;;;9.79;56.47
62697;BME280;48761;42.680;23.312;2023-04-08T10:55:23;94944.56;;;9.85;56.70
62697;BME280;48761;42.680;23.312;2023-04-08T10:57:50;94946.09;;;9.75;56.39
62697;BME280;48761;42.680;23.312;2023-04-08T11:00:32;94942.72;;;9.86;56.67
62697;BME280;48761;42.680;23.312;2023-04-08T11:03:09;94921.72;;;9.83;55.93
62697;BME280;48761;42.680;23.312;2023-04-08T11:05:36;94942.53;;;9.89;55.79
62697;BME280;48761;42.680;23.312;2023-04-08T11:08:03;94931.47;;;9.82;55.74
62697;BME280;48761;42.680;23.312;2023-04-08T11:10:29;94918.06;;;9.84;55.20
62697;BME280;48761;42.680;23.312;2023-04-08T11:12:56;94923.00;;;9.90;55.42
62697;BME280;48761;42.680;23.312;2023-04-08T11:15:28;94929.41;;;10.01;55.65
62697;BME280;48761;42.680;23.312;2023-04-08T11:17:55;94929.41;;;10.01;55.25
62697;BME280;48761;42.680;23.312;2023-04-08T11:20:21;94933.81;;;9.87;55.43
62697;BME280;48761;42.680;23.312;2023-04-08T11:22:47;94911.00;;;9.97;55.99
62697;BME280;48761;42.680;23.312;2023-04-08T11:25:13;94893.31;;;10.11;55.12
62697;BME280;48761;42.680;23.312;2023-04-08T11:27:39;94918.94;;;10.38;54.21
62697;BME280;48761;42.680;23.312;2023-04-08T11:30:06;94907.59;;;10.62;53.62
62697;BME280;48761;42.680;23.312;2023-04-08T11:32:34;94886.94;;;10.27;52.25
62697;BME280;48761;42.680;23.312;2023-04-08T11:35:01;94893.53;;;10.47;53.07
62697;BME280;48761;42.680;23.312;2023-04-08T11:37:39;94885.91;;;10.69;52.37
62697;BME280;48761;42.680;23.312;2023-04-08T11:40:10;94881.47;;;10.56;52.56
62697;BME280;48761;42.680;23.312;2023-04-08T11:42:37;94873.31;;;10.31;52.82
62697;BME280;48761;42.680;23.312;2023-04-08T11:45:11;94899.06;;;10.31;52.38
62697;BME280;48761;42.680;23.312;2023-04-08T11:47:37;94885.00;;;10.29;52.98
62697;BME280;48761;42.680;23.312;2023-04-08T11:50:04;94891.41;;;10.39;51.70
62697;BME280;48761;42.680;23.312;2023-04-08T11:55:06;94872.50;;;10.57;51.65
62697;BME280;48761;42.680;23.312;2023-04-08T11:57:32;94862.72;;;10.58;51.02
62697;BME280;48761;42.680;23.312;2023-04-08T11:59:58;94870.38;;;10.62;50.82
62697;BME280;48761;42.680;23.312;2023-04-08T12:02:24;94872.75;;;10.54;50.53
62697;BME280;48761;42.680;23.312;2023-04-08T12:04:50;94862.94;;;10.68;50.81
62697;BME280;48761;42.680;23.312;2023-04-08T12:07:16;94867.31;;;10.69;51.04
62697;BME280;48761;42.680;23.312;2023-04-08T12:09:42;94862.38;;;10.75;50.86
62697;BME280;48761;42.680;23.312;2023-04-08T12:12:07;94852.75;;;10.61;51.64
62697;BME280;48761;42.680;23.312;2023-04-08T12:14:33;94858.47;;;10.55;51.57
62697;BME280;48761;42.680;23.312;2023-04-08T12:16:59;94849.44;;;10.58;52.10
62697;BME280;48761;42.680;23.312;2023-04-08T12:19:25;94857.81;;;10.64;52.20
62697;BME280;48761;42.680;23.312;2023-04-08T12:21:51;94826.16;;;10.61;51.63
62697;BME280;48761;42.680;23.312;2023-04-08T12:24:17;94861.22;;;10.80;51.22
62697;BME280;48761;42.680;23.312;2023-04-08T12:26:43;94858.69;;;10.26;51.76
62697;BME280;48761;42.680;23.312;2023-04-08T12:29:09;94861.34;;;10.26;52.30
62697;BME280;48761;42.680;23.312;2023-04-08T12:31:35;94857.59;;;10.02;52.82
62697;BME280;48761;42.680;23.312;2023-04-08T12:34:00;94802.75;;;9.75;53.17
62697;BME280;48761;42.680;23.312;2023-04-08T12:36:26;94834.19;;;9.81;52.67
62697;BME280;48761;42.680;23.312;2023-04-08T12:38:52;94849.84;;;10.12;52.85
62697;BME280;48761;42.680;23.312;2023-04-08T12:41:18;94831.25;;;10.12;54.01
62697;BME280;48761;42.680;23.312;2023-04-08T12:43:44;94847.06;;;10.01;53.81
62697;BME280;48761;42.680;23.312;2023-04-08T12:46:10;94833.13;;;9.84;53.53
62697;BME280;48761;42.680;23.312;2023-04-08T12:48:36;94846.09;;;9.75;53.93
62697;BME280;48761;42.680;23.312;2023-04-08T12:51:02;94844.63;;;9.97;53.87
62697;BME280;48761;42.680;23.312;2023-04-08T12:53:28;94853.34;;;10.13;53.72
62697;BME280;48761;42.680;23.312;2023-04-08T12:55:54;94844.41;;;10.01;53.44
62697;BME280;48761;42.680;23.312;2023-04-08T12:58:20;94861.66;;;10.21;52.73
62697;BME280;48761;42.680;23.312;2023-04-08T13:00:46;94871.97;;;10.26;52.87
62697;BME280;48761;42.680;23.312;2023-04-08T13:03:12;94862.50;;;10.35;52.87
62697;BME280;48761;42.680;23.312;2023-04-08T13:05:38;94881.22;;;10.33;52.89
62697;BME280;48761;42.680;23.312;2023-04-08T13:08:04;94875.56;;;10.25;53.41
62697;BME280;48761;42.680;23.312;2023-04-08T13:10:30;94868.63;;;10.09;53.95
62697;BME280;48761;42.680;23.312;2023-04-08T13:12:56;94875.16;;;10.31;53.75
62697;BME280;48761;42.680;23.312;2023-04-08T13:15:22;94872.38;;;10.46;53.24
62697;BME280;48761;42.680;23.312;2023-04-08T13:17:48;94851.66;;;10.25;53.39
62697;BME280;48761;42.680;23.312;2023-04-08T13:20:14;94856.31;;;10.34;54.20
62697;BME280;48761;42.680;23.312;2023-04-08T13:22:40;94855.88;;;10.14;54.85
62697;BME280;48761;42.680;23.312;2023-04-08T13:25:06;94854.09;;;10.15;56.70
62697;BME280;48761;42.680;23.312;2023-04-08T13:27:33;94854.59;;;10.07;57.18
62697;BME280;48761;42.680;23.312;2023-04-08T13:29:59;94836.31;;;9.89;57.12
62697;BME280;48761;42.680;23.312;2023-04-08T13:32:24;94847.13;;;9.86;57.08
62697;BME280;48761;42.680;23.312;2023-04-08T13:34:50;94853.97;;;9.90;57.19
62697;BME280;48761;42.680;23.312;2023-04-08T13:37:19;94842.28;;;9.93;57.81
62697;BME280;48761;42.680;23.312;2023-04-08T13:39:45;94839.06;;;9.74;56.17